Data for 05/16/2016

Time Sea-Level Adjusted Pressure Absolute Pressure Temperature Relative Humidity Dew Point   
(mb) (inHg) (mb) (inHg) (C) (F) (%) (C) (F)
00:05 1017 30.03 846 24.98 4.7 40.5 89 3.1 37.5
00:10 1017 30.03 846 24.98 4.7 40.4 90 3.1 37.6
00:15 1017 30.03 846 24.98 4.7 40.4 90 3.2 37.7
00:20 1017 30.03 846 24.98 4.6 40.3 91 3.2 37.8
00:25 1017 30.03 846 24.98 4.6 40.2 91 3.2 37.8
00:30 1017 30.03 846 24.98 4.5 40.2 91 3.2 37.8
00:35 1017 30.03 846 24.98 4.6 40.2 91 3.3 37.9
00:40 1017 30.03 846 24.98 4.5 40.2 92 3.3 37.9
00:45 1017 30.03 846 24.98 4.5 40.1 91 3.2 37.8
00:50 1017 30.03 846 24.98 4.5 40 91 3.2 37.7
00:55 1017 30.03 846 24.98 4.5 40 91 3.2 37.7
01:00 1017 30.03 846 24.98 4.5 40.1 91 3.2 37.8
01:05 1017 30.03 846 24.98 4.5 40.1 91 3.2 37.7
01:10 1017 30.03 846 24.98 4.4 40 91 3.1 37.6
01:15 1017 30.03 846 24.98 4.4 39.9 90 3 37.3
01:20 1017 30.03 846 24.98 4.3 39.8 90 2.9 37.2
01:25 1017 30.03 846 24.98 4.1 39.4 91 2.8 37.1
01:30 1017 30.03 846 24.98 4.1 39.4 91 2.8 37
01:35 1017 30.03 846 24.98 4 39.2 91 2.7 36.9
01:40 1017 30.03 846 24.98 4 39.2 92 2.8 37.1
01:45 1017 30.03 846 24.98 4.1 39.3 92 2.9 37.2
01:50 1017 30.03 846 24.98 4.1 39.4 92 3 37.3
01:55 1017 30.03 846 24.98 4.1 39.4 92 2.9 37.3
02:00 1017 30.03 846 24.98 4 39.2 92 2.9 37.1
02:05 1017 30.03 846 24.98 4 39.2 92 2.9 37.2
02:10 1017 30.03 846 24.98 4.1 39.3 93 3 37.4
02:15 1017 30.03 846 24.98 4.1 39.4 93 3.1 37.5
02:20 1017 30.03 846 24.98 4.2 39.6 93 3.1 37.6
02:25 1017 30.03 846 24.98 4.2 39.6 93 3.1 37.6
02:30 1017 30.03 846 24.98 4.1 39.4 93 3 37.4
02:35 1017 30.03 846 24.98 4.1 39.3 93 3 37.4
02:40 1017 30.03 846 24.98 4.1 39.3 93 3.1 37.5
02:45 1017 30.03 846 24.98 4.2 39.5 93 3.2 37.7
02:50 1017 30.03 846 24.98 4.2 39.6 93 3.2 37.7
02:55 1017 30.03 846 24.98 4.2 39.6 93 3.2 37.7
03:00 1017 30.03 846 24.98 4.2 39.6 93 3.1 37.7
03:05 1017 30.03 846 24.98 4.2 39.5 93 3.2 37.7
03:10 1017 30.03 846 24.98 4.2 39.6 93 3.2 37.8
03:15 1017 30.03 846 24.98 4.3 39.7 93 3.2 37.8
03:20 1017 30.03 846 24.98 4.2 39.5 93 3.1 37.6
03:25 1017 30.03 846 24.98 4.2 39.5 93 3.1 37.6
03:30 1017 30.03 846 24.98 4.2 39.6 93 3.2 37.7
03:35 1017 30.03 846 24.98 4.3 39.7 93 3.2 37.8
03:40 1017 30.03 846 24.98 4.3 39.8 93 3.3 37.9
03:45 1017 30.03 846 24.98 4.4 39.8 93 3.3 37.9
03:50 1017 30.03 846 24.98 4.3 39.8 92 3.2 37.8
03:55 1017 30.03 846 24.98 4.4 39.9 92 3.2 37.8
04:00 1017 30.03 846 24.98 4.4 39.9 92 3.2 37.8
04:05 1017 30.03 846 24.98 4.4 39.8 92 3.1 37.6
04:10 1017 30.03 846 24.98 4.3 39.8 91 3 37.5
04:15 1017 30.03 846 24.98 4.4 39.8 91 3.1 37.5
04:20 1017 30.03 846 24.98 4.3 39.7 91 3 37.3
04:25 1017 30.03 846 24.98 4.2 39.6 91 2.9 37.2
04:30 1017 30.03 847 25.01 4.2 39.6 91 2.9 37.1
04:35 1017 30.03 847 25.01 4.1 39.4 91 2.8 37.1
04:40 1017 30.03 847 25.01 4.2 39.6 91 2.9 37.2
04:45 1017 30.03 847 25.01 4.2 39.5 91 2.8 37.1
04:50 1017 30.03 847 25.01 4.1 39.4 92 2.9 37.1
04:55 1017 30.03 847 25.01 4.2 39.5 91 2.9 37.3
05:00 1018 30.06 847 25.01 4.1 39.4 91 2.8 37.1
05:05 1018 30.06 847 25.01 4.2 39.5 91 2.8 37.1
05:10 1018 30.06 847 25.01 4.2 39.6 91 2.8 37.1
05:15 1018 30.06 847 25.01 4.2 39.6 91 2.8 37.1
05:20 1018 30.06 847 25.01 4.3 39.7 91 2.9 37.2
05:25 1018 30.06 847 25.01 4.3 39.7 90 2.8 37.1
05:30 1018 30.06 847 25.01 4.3 39.7 91 2.9 37.2
05:35 1018 30.06 847 25.01 4.3 39.8 91 2.9 37.3
05:40 1018 30.06 847 25.01 4.4 39.9 90 3 37.3
05:45 1018 30.06 847 25.01 4.4 39.9 90 3 37.3
05:50 1018 30.06 847 25.01 4.5 40.1 90 3.1 37.5
05:55 1018 30.06 847 25.01 4.6 40.2 90 3.1 37.5
06:00 1018 30.06 847 25.01 4.6 40.2 89 2.9 37.3
06:05 1018 30.06 847 25.01 4.6 40.3 89 2.9 37.3
06:10 1018 30.06 847 25.01 4.6 40.4 87 2.6 36.7
06:15 1018 30.06 847 25.01 4.9 40.7 82 2 35.7
06:20 1018 30.06 847 25.01 5.1 41.2 79 1.8 35.2
06:25 1018 30.06 847 25.01 5.1 41.2 80 1.9 35.4
06:30 1018 30.06 847 25.01 5.1 41.2 81 2.1 35.8
06:35 1018 30.06 847 25.01 5.1 41.2 79 1.8 35.3
06:40 1018 30.06 847 25.01 5.2 41.3 80 2 35.6
06:45 1018 30.06 848 25.04 5.2 41.4 80 2.1 35.7
06:50 1018 30.06 848 25.04 5.1 41.2 81 2.1 35.8
06:55 1018 30.06 848 25.04 5.1 41.2 81 2.1 35.8
07:00 1018 30.06 848 25.04 5.1 41.2 80 1.9 35.4
07:05 1018 30.06 848 25.04 5.3 41.5 77 1.6 35
07:10 1018 30.06 848 25.04 5.6 42.1 74 1.4 34.5
07:15 1018 30.06 848 25.04 5.9 42.6 73 1.4 34.5
07:20 1019 30.09 848 25.04 6.1 42.9 73 1.5 34.8
07:25 1019 30.09 848 25.04 6.1 43 74 1.8 35.2
07:30 1019 30.09 848 25.04 6.1 42.9 75 1.9 35.4
07:35 1019 30.09 848 25.04 5.9 42.6 74 1.7 35
07:40 1019 30.09 848 25.04 5.7 42.3 76 1.8 35.2
07:45 1019 30.09 848 25.04 5.7 42.3 75 1.7 35
07:50 1019 30.09 848 25.04 5.8 42.4 76 1.9 35.5
07:55 1019 30.09 848 25.04 5.8 42.5 75 1.7 35
08:00 1019 30.09 848 25.04 5.8 42.4 74 1.4 34.6
08:05 1019 30.09 848 25.04 5.9 42.7 74 1.7 35.1
08:10 1019 30.09 848 25.04 6.1 43 72 1.5 34.8
08:15 1019 30.09 848 25.04 6.1 43 75 2 35.5
08:20 1019 30.09 848 25.04 6.2 43.2 74 2 35.6
08:25 1019 30.09 848 25.04 6.2 43.2 73 1.7 35.1
08:30 1019 30.09 848 25.04 6.2 43.2 74 1.9 35.5
08:35 1019 30.09 848 25.04 6.3 43.3 73 1.8 35.3
08:40 1019 30.09 848 25.04 6.3 43.3 74 2 35.6
08:45 1019 30.09 848 25.04 6.4 43.6 74 2.2 35.9
08:50 1019 30.09 848 25.04 6.4 43.6 74 2.2 35.9
08:55 1019 30.09 849 25.07 6.3 43.4 74 2.1 35.8
09:00 1019 30.09 849 25.07 6.4 43.5 73 2 35.6
09:05 1019 30.09 849 25.07 6.5 43.7 76 2.6 36.8
09:10 1019 30.09 849 25.07 6.8 44.2 74 2.5 36.5
09:15 1019 30.09 849 25.07 6.6 44 74 2.3 36.1
09:20 1019 30.09 849 25.07 6.8 44.2 73 2.4 36.2
09:25 1019 30.09 849 25.07 7 44.6 71 2.1 35.7
09:30 1019 30.09 849 25.07 6.9 44.5 71 2 35.7
09:35 1019 30.09 849 25.07 7.1 44.8 71 2.2 35.9
09:40 1019 30.09 849 25.07 7.2 45 69 1.9 35.5
09:45 1019 30.09 849 25.07 7.5 45.6 68 2 35.6
09:50 1019 30.09 849 25.07 7.4 45.4 69 2.1 35.7
09:55 1019 30.09 849 25.07 7.6 45.7 68 2 35.6
10:00 1019 30.09 849 25.07 7.7 45.9 66 1.7 35.1
10:05 1019 30.09 849 25.07 7.7 45.8 67 2 35.6
10:10 1020 30.12 849 25.07 8.3 46.9 65 2 35.7
10:15 1020 30.12 849 25.07 8.6 47.4 60 1.4 34.4
10:20 1020 30.12 849 25.07 8.4 47.2 60 1.2 34.2
10:25 1019 30.09 849 25.07 8.1 46.6 62 1.4 34.4
10:30 1019 30.09 849 25.07 8.4 47 61 1.3 34.3
10:35 1019 30.09 849 25.07 8.6 47.5 60 1.4 34.5
10:40 1019 30.09 849 25.07 8.7 47.6 63 2 35.6
10:45 1019 30.09 849 25.07 9 48.1 60 1.7 35.1
10:50 1019 30.09 849 25.07 9.4 48.8 57 1.4 34.5
10:55 1019 30.09 849 25.07 9.4 48.9 57 1.4 34.6
11:00 1019 30.09 849 25.07 9.3 48.8 60 2.1 35.7
11:05 1019 30.09 849 25.07 9.4 48.8 58 1.7 35
11:10 1019 30.09 849 25.07 9.3 48.7 59 1.7 35
11:15 1019 30.09 849 25.07 9.1 48.5 59 1.6 35
11:20 1019 30.09 849 25.07 9.4 49 59 2 35.5
11:25 1019 30.09 849 25.07 9.5 49.1 58 1.7 35.1
11:30 1019 30.09 849 25.07 10 49.9 56 1.5 34.8
11:35 1019 30.09 849 25.07 9.9 49.9 58 2 35.6
11:40 1020 30.12 849 25.07 10 50 57 1.8 35.3
11:45 1020 30.12 849 25.07 9.9 49.8 59 2.4 36.3
11:50 1020 30.12 849 25.07 9.9 49.8 60 2.6 36.7
11:55 1020 30.12 849 25.07 9.9 49.8 62 2.9 37.3
12:00 1020 30.12 849 25.07 9.8 49.6 61 2.6 36.7
12:05 1019 30.09 849 25.07 9.5 49.1 62 2.6 36.7
12:10 1019 30.09 849 25.07 9.8 49.6 61 2.8 37
12:15 1019 30.09 849 25.07 10.1 50.2 58 2.4 36.2
12:20 1020 30.12 849 25.07 9.7 49.5 63 3.1 37.5
12:25 1020 30.12 849 25.07 9.6 49.4 63 2.9 37.3
12:30 1020 30.12 849 25.07 9.3 48.8 64 2.8 37.1
12:35 1020 30.12 849 25.07 9.5 49 63 2.9 37.2
12:40 1020 30.12 849 25.07 9.7 49.5 63 3 37.5
12:45 1020 30.12 849 25.07 9.2 48.6 65 3.1 37.5
12:50 1020 30.12 849 25.07 9.2 48.5 65 2.9 37.2
12:55 1020 30.12 849 25.07 9.1 48.3 64 2.5 36.6
13:00 1020 30.12 849 25.07 9.4 48.9 63 2.8 37
13:05 1020 30.12 849 25.07 10 49.9 61 2.8 37.1
13:10 1020 30.12 849 25.07 10 50 60 2.7 36.9
13:15 1020 30.12 849 25.07 9.8 49.6 62 3 37.4
13:20 1020 30.12 849 25.07 9.8 49.6 62 2.8 37
13:25 1020 30.12 849 25.07 10 49.9 61 2.9 37.1
13:30 1020 30.12 849 25.07 9.8 49.6 64 3.3 38
13:35 1020 30.12 849 25.07 9.5 49.2 64 3.2 37.7
13:40 1020 30.12 849 25.07 9.6 49.3 64 3.2 37.8
13:45 1020 30.12 849 25.07 9.7 49.5 64 3.2 37.7
13:50 1020 30.12 849 25.07 10.2 50.3 61 3 37.4
13:55 1020 30.12 849 25.07 9.9 49.7 62 3 37.4
14:00 1020 30.12 849 25.07 9.9 49.9 62 3.1 37.6
14:05 1020 30.12 849 25.07 10.1 50.1 62 3.2 37.7
14:10 1020 30.12 849 25.07 10.4 50.7 60 2.9 37.3
14:15 1020 30.12 849 25.07 10.4 50.8 60 3 37.5
14:20 1020 30.12 849 25.07 10.2 50.4 60 2.7 36.9
14:25 1020 30.12 849 25.07 10.1 50.3 60 2.7 36.9
14:30 1020 30.12 849 25.07 10.3 50.6 58 2.6 36.6
14:35 1020 30.12 849 25.07 10.4 50.7 59 2.9 37.2
14:40 1020 30.12 849 25.07 10.8 51.4 57 2.6 36.7
14:45 1020 30.12 849 25.07 11 51.8 57 2.9 37.2
14:50 1020 30.12 849 25.07 11.1 52 56 2.7 36.9
14:55 1020 30.12 849 25.07 11.1 52 57 2.9 37.1
15:00 1020 30.12 849 25.07 11 51.8 57 2.8 37
15:05 1020 30.12 849 25.07 10.9 51.6 56 2.5 36.6
15:10 1020 30.12 849 25.07 11 51.8 52 1.6 34.9
15:15 1020 30.12 849 25.07 11 51.8 51 1.4 34.5
15:20 1020 30.12 849 25.07 10.9 51.6 53 1.8 35.2
15:25 1020 30.12 849 25.07 11.4 52.5 51 1.6 34.9
15:30 1020 30.12 849 25.07 11.1 51.9 52 1.6 34.9
15:35 1020 30.12 849 25.07 10.9 51.6 53 1.6 34.9
15:40 1020 30.12 849 25.07 11.1 52 52 1.7 35.1
15:45 1020 30.12 849 25.07 10.8 51.5 54 2 35.7
15:50 1020 30.12 849 25.07 10.9 51.7 52 1.5 34.8
15:55 1020 30.12 849 25.07 10.9 51.6 52 1.5 34.7
16:00 1020 30.12 849 25.07 11.1 52 51 1.4 34.6
16:05 1020 30.12 849 25.07 11.3 52.4 51 1.7 35.1
16:10 1020 30.12 849 25.07 11.4 52.5 51 1.7 35
16:15 1020 30.12 849 25.07 11 51.8 51 1.3 34.4
16:20 1020 30.12 849 25.07 11.2 52.1 51 1.5 34.8
16:25 1020 30.12 849 25.07 11.4 52.6 52 1.9 35.4
16:30 1020 30.12 849 25.07 11.2 52.2 52 1.8 35.3
16:35 1020 30.12 849 25.07 11.3 52.4 53 2.2 35.9
16:40 1020 30.12 849 25.07 11.1 52 54 2.1 35.8
16:45 1020 30.12 849 25.07 11.2 52.2 54 2.3 36.2
16:50 1020 30.12 849 25.07 11.2 52.2 54 2.3 36.1
16:55 1020 30.12 849 25.07 11 51.8 54 2 35.6
17:00 1020 30.12 849 25.07 10.9 51.7 54 1.9 35.5
17:05 1020 30.12 849 25.07 11 51.8 54 2 35.7
17:10 1020 30.12 849 25.07 11.2 52.2 54 2.3 36.2
17:15 1020 30.12 849 25.07 11.1 52 55 2.4 36.2
17:20 1020 30.12 849 25.07 11 51.8 54 2 35.7
17:25 1020 30.12 849 25.07 10.8 51.5 55 2.2 36
17:30 1020 30.12 849 25.07 10.8 51.4 54 1.9 35.5
17:35 1020 30.12 849 25.07 10.8 51.4 54 2 35.6
17:40 1020 30.12 849 25.07 10.9 51.7 54 2.1 35.7
17:45 1020 30.12 849 25.07 11 51.7 54 2.1 35.7
17:50 1020 30.12 850 25.1 11 51.7 53 1.9 35.4
17:55 1020 30.12 850 25.1 11 51.7 53 1.8 35.3
18:00 1020 30.12 850 25.1 11 51.7 54 2 35.5
18:05 1020 30.12 850 25.1 11 51.7 54 2.1 35.7
18:10 1020 30.12 850 25.1 11 51.8 54 2.1 35.7
18:15 1021 30.15 850 25.1 11 51.8 54 2.1 35.7
18:20 1021 30.15 850 25.1 10.9 51.7 55 2.2 35.9
18:25 1021 30.15 850 25.1 11 51.7 54 2.2 35.9
18:30 1021 30.15 850 25.1 10.8 51.5 55 2.2 35.9
18:35 1021 30.15 850 25.1 10.8 51.5 55 2.3 36.1
18:40 1021 30.15 850 25.1 10.9 51.6 55 2.2 36
18:45 1021 30.15 850 25.1 10.9 51.7 54 2.1 35.9
18:50 1021 30.15 850 25.1 11.1 51.9 55 2.4 36.3
18:55 1021 30.15 850 25.1 11.1 52 55 2.4 36.3
19:00 1021 30.15 850 25.1 11.1 52.1 55 2.6 36.6
19:05 1021 30.15 850 25.1 11.1 51.9 54 2.2 36
19:10 1021 30.15 850 25.1 11.1 51.9 54 2.2 35.9
19:15 1021 30.15 850 25.1 11 51.7 54 2.1 35.8
19:20 1021 30.15 850 25.1 10.9 51.5 55 2.2 35.9
19:25 1021 30.15 850 25.1 10.8 51.4 55 2.2 35.9
19:30 1021 30.15 850 25.1 10.6 51.2 56 2.2 35.9
19:35 1021 30.15 850 25.1 10.6 51 56 2.2 35.9
19:40 1021 30.15 850 25.1 10.5 50.8 56 2.1 35.8
19:45 1021 30.15 850 25.1 10.4 50.6 56 2.1 35.8
19:50 1021 30.15 850 25.1 10.2 50.3 57 2.1 35.8
19:55 1021 30.15 850 25.1 10.1 50.1 58 2.3 36.1
20:00 1021 30.15 850 25.1 9.9 49.8 58 2.1 35.9
20:05 1021 30.15 850 25.1 9.8 49.7 58 2 35.6
20:10 1021 30.15 850 25.1 9.8 49.6 59 2.1 35.7
20:15 1021 30.15 850 25.1 9.6 49.4 59 2.1 35.7
20:20 1021 30.15 850 25.1 9.6 49.2 59 2 35.7
20:25 1021 30.15 850 25.1 9.5 49 60 2.1 35.8
20:30 1021 30.15 850 25.1 9.4 48.8 60 2 35.6
20:35 1021 30.15 851 25.13 9.3 48.7 60 2.1 35.7
20:40 1021 30.15 851 25.13 9.2 48.6 61 2.1 35.7
20:45 1021 30.15 851 25.13 9.2 48.5 61 2.1 35.9
20:50 1021 30.15 851 25.13 9 48.2 62 2.3 36.1
20:55 1022 30.18 851 25.13 8.9 47.9 63 2.2 36
21:00 1022 30.18 851 25.13 8.8 47.9 63 2.3 36.1
21:05 1022 30.18 851 25.13 8.8 47.8 64 2.3 36.2
21:10 1022 30.18 851 25.13 8.7 47.7 64 2.3 36.1
21:15 1022 30.18 851 25.13 8.7 47.7 64 2.4 36.3
21:20 1022 30.18 851 25.13 8.7 47.7 64 2.4 36.3
21:25 1022 30.18 851 25.13 8.7 47.6 65 2.4 36.4
21:30 1022 30.18 851 25.13 8.7 47.7 64 2.4 36.2
21:35 1022 30.18 851 25.13 8.7 47.6 65 2.5 36.4
21:40 1022 30.18 851 25.13 8.6 47.5 65 2.4 36.3
21:45 1022 30.18 851 25.13 8.6 47.4 65 2.4 36.4
21:50 1022 30.18 851 25.13 8.5 47.4 65 2.4 36.3
21:55 1022 30.18 851 25.13 8.6 47.4 65 2.3 36.2
22:00 1022 30.18 851 25.13 8.6 47.5 65 2.4 36.3
22:05 1022 30.18 851 25.13 8.6 47.4 65 2.3 36.1
22:10 1022 30.18 851 25.13 8.5 47.3 65 2.4 36.2
22:15 1022 30.18 851 25.13 8.4 47.2 65 2.3 36.1
22:20 1022 30.18 851 25.13 8.5 47.2 65 2.3 36.1
22:25 1022 30.18 851 25.13 8.4 47.2 65 2.3 36.2
22:30 1022 30.18 851 25.13 8.4 47.1 65 2.3 36.1
22:35 1022 30.18 851 25.13 8.4 47.2 65 2.2 36
22:40 1022 30.18 851 25.13 8.4 47.2 65 2.4 36.2
22:45 1022 30.18 851 25.13 8.3 47 66 2.3 36.1
22:50 1022 30.18 851 25.13 8.3 47 65 2.2 36
22:55 1022 30.18 851 25.13 8.4 47.1 65 2.2 35.9
23:00 1022 30.18 851 25.13 8.4 47.1 65 2.1 35.8
23:05 1022 30.18 851 25.13 8.4 47.2 65 2.2 35.9
23:10 1022 30.18 851 25.13 8.4 47.1 64 2.1 35.7
23:15 1022 30.18 851 25.13 8.4 47 64 2.1 35.7
23:20 1022 30.18 851 25.13 8.4 47 64 2 35.6
23:25 1022 30.18 851 25.13 8.3 47 65 2.1 35.8
23:30 1022 30.18 851 25.13 8.3 46.9 65 2.1 35.7
23:35 1022 30.18 851 25.13 8.2 46.8 65 2.1 35.8
23:40 1022 30.18 851 25.13 8.1 46.6 66 2.2 35.9
23:45 1022 30.18 851 25.13 8 46.4 66 2.1 35.7
23:50 1022 30.18 851 25.13 8 46.4 66 2.1 35.9
23:55 1022 30.18 851 25.13 7.9 46.3 67 2.2 35.9
24:00 1022 30.18 851 25.13 7.9 46.2 67 2.1 35.8